Time;durP1;ratioP1;P1;durP2;ratioP2;P2;SDS_P1;SDS_P2;PMS_P1;PMS_P2;Temp;Humidity;BMP_temperature;BMP_pressure;BME280_temperature;BME280_humidity;BME280_pressure;Samples;Min_cycle;Max_cycle;Signal;HPM_P1;HPM_P2
2023/08/02 00:01:26;;;;;;;1.70;1.60;;;;;;;;;;5062327;28;20554;-63
2023/08/02 00:03:52;;;;;;;2.20;1.77;;;;;;;;;;5062206;28;20438;-63
2023/08/02 00:06:18;;;;;;;2.25;1.63;;;;;;;;;;5062273;28;20212;-63
2023/08/02 00:08:46;;;;;;;1.90;1.50;;;;;;;;;;5062013;28;20213;-63
2023/08/02 00:11:15;;;;;;;7.60;1.75;;;;;;;;;;5062127;28;20201;-63
2023/08/02 00:13:42;;;;;;;3.70;1.58;;;;;;;;;;5054310;28;20520;-63
2023/08/02 00:16:08;;;;;;;2.53;1.45;;;;;;;;;;5062194;28;20397;-63
2023/08/02 00:18:35;;;;;;;2.97;1.60;;;;;;;;;;5062061;28;20197;-63
2023/08/02 00:21:01;;;;;;;1.67;1.20;;;;;;;;;;5062096;28;20208;-63
2023/08/02 00:23:27;;;;;;;1.70;1.55;;;;;;;;;;5061719;28;20512;-64
2023/08/02 00:25:55;;;;;;;4.15;1.38;;;;;;;;;;5061425;28;20197;-63
2023/08/02 00:28:21;;;;;;;3.08;1.48;;;;;;;;;;5060977;28;20228;-63
2023/08/02 00:30:48;;;;;;;4.00;1.73;;;;;;;;;;5061805;28;20197;-63
2023/08/02 00:33:14;;;;;;;5.95;1.80;;;;;;;;;;5060785;28;20223;-63
2023/08/02 00:35:44;;;;;;;1.50;1.45;;;;;;;;;;5052811;28;20201;-63
2023/08/02 00:38:10;;;;;;;5.30;1.90;;;;;;;;;;5060651;28;20419;-63
2023/08/02 00:40:37;;;;;;;1.77;1.67;;;;;;;;;;5060589;28;20518;-63
2023/08/02 00:43:04;;;;;;;3.28;1.52;;;;;;;;;;5060738;28;20421;-63
2023/08/02 00:45:31;;;;;;;2.45;1.50;;;;;;;;;;5064001;28;20201;-63
2023/08/02 00:47:57;;;;;;;1.73;1.42;;;;;;;;;;5065748;28;20224;-63
2023/08/02 00:50:24;;;;;;;4.32;1.58;;;;;;;;;;5065974;28;20212;-63
2023/08/02 00:52:51;;;;;;;3.25;1.70;;;;;;;;;;5065437;28;20209;-63
2023/08/02 00:55:17;;;;;;;1.98;1.88;;;;;;;;;;5065774;28;20209;-63
2023/08/02 00:57:44;;;;;;;3.95;1.63;;;;;;;;;;5065835;28;20197;-63
2023/08/02 01:00:12;;;;;;;4.07;1.92;;;;;;;;;;5065582;28;20201;-63
2023/08/02 01:02:38;;;;;;;2.10;1.67;;;;;;;;;;5065394;28;20527;-63
2023/08/02 01:05:05;;;;;;;3.92;1.98;;;;;;;;;;5065437;28;20486;-63
2023/08/02 01:07:36;;;;;;;4.63;1.67;;;;;;;;;;5065290;28;20201;-63
2023/08/02 01:10:05;;;;;;;1.95;1.85;;;;;;;;;;5065743;28;20196;-63
2023/08/02 01:12:32;;;;;;;2.10;1.52;;;;;;;;;;5065440;28;20201;-63
2023/08/02 01:15:00;;;;;;;2.22;1.67;;;;;;;;;;5065150;28;20216;-63
2023/08/02 01:17:29;;;;;;;4.00;1.67;;;;;;;;;;5065224;28;20399;-63
2023/08/02 01:19:55;;;;;;;2.35;1.92;;;;;;;;;;5065506;28;20193;-63
2023/08/02 01:22:23;;;;;;;1.70;1.60;;;;;;;;;;5065254;28;20501;-63
2023/08/02 01:24:49;;;;;;;2.08;1.90;;;;;;;;;;5065225;28;20197;-63
2023/08/02 01:27:19;;;;;;;4.32;1.67;;;;;;;;;;5065279;28;20420;-63
2023/08/02 01:29:47;;;;;;;1.40;1.30;;;;;;;;;;5057296;28;20213;-63
2023/08/02 01:32:14;;;;;;;3.25;1.50;;;;;;;;;;5065087;28;20223;-63
2023/08/02 01:34:41;;;;;;;1.85;1.70;;;;;;;;;;5064664;28;20197;-63
2023/08/02 01:37:07;;;;;;;2.75;1.70;;;;;;;;;;5064702;28;20201;-63
2023/08/02 01:39:34;;;;;;;1.60;1.50;;;;;;;;;;5064936;28;20473;-63
2023/08/02 01:42:01;;;;;;;2.92;1.40;;;;;;;;;;5064914;28;20201;-63
2023/08/02 01:44:27;;;;;;;2.72;1.60;;;;;;;;;;5064454;28;20201;-63
2023/08/02 01:46:53;;;;;;;1.60;1.50;;;;;;;;;;5064922;28;20205;-63
2023/08/02 01:49:21;;;;;;;6.07;1.75;;;;;;;;;;5064873;28;20401;-63
2023/08/02 01:51:47;;;;;;;2.88;2.40;;;;;;;;;;5064676;28;20458;-63
2023/08/02 01:54:14;;;;;;;6.28;1.95;;;;;;;;;;5064564;28;20236;-63
2023/08/02 01:56:41;;;;;;;1.55;1.45;;;;;;;;;;5064530;28;20398;-63
2023/08/02 01:59:08;;;;;;;2.20;1.75;;;;;;;;;;5064362;28;20201;-63
2023/08/02 02:01:34;;;;;;;2.63;1.60;;;;;;;;;;5064460;28;20219;-63
2023/08/02 02:04:00;;;;;;;1.95;1.70;;;;;;;;;;5064393;28;20209;-63
2023/08/02 02:06:26;;;;;;;3.50;1.50;;;;;;;;;;5064443;28;20208;-63
2023/08/02 02:08:53;;;;;;;2.75;1.60;;;;;;;;;;5064469;28;20346;-63
2023/08/02 02:11:19;;;;;;;2.67;1.67;;;;;;;;;;5064371;28;20201;-63
2023/08/02 02:13:46;;;;;;;1.77;1.60;;;;;;;;;;5055630;28;20197;-63
2023/08/02 02:16:13;;;;;;;2.35;1.50;;;;;;;;;;5064344;28;20547;-63
2023/08/02 02:18:39;;;;;;;2.05;1.83;;;;;;;;;;5064395;28;20217;-63
2023/08/02 02:21:05;;;;;;;2.63;1.65;;;;;;;;;;5064519;28;20224;-63
2023/08/02 02:23:32;;;;;;;1.42;1.42;;;;;;;;;;5064192;28;20205;-63
2023/08/02 02:25:58;;;;;;;1.73;1.63;;;;;;;;;;5064015;28;20209;-63
2023/08/02 02:28:24;;;;;;;1.63;1.40;;;;;;;;;;5063638;28;20224;-63
2023/08/02 02:30:52;;;;;;;1.33;1.15;;;;;;;;;;5064140;28;20203;-63
2023/08/02 02:33:18;;;;;;;1.73;1.63;;;;;;;;;;5063798;28;20205;-63
2023/08/02 02:35:44;;;;;;;2.22;1.38;;;;;;;;;;5063757;28;20189;-63
2023/08/02 02:38:10;;;;;;;3.47;1.58;;;;;;;;;;5063860;28;20209;-63
2023/08/02 02:40:37;;;;;;;2.35;1.65;;;;;;;;;;5063665;28;20532;-63
2023/08/02 02:43:03;;;;;;;5.20;1.80;;;;;;;;;;5063668;28;20497;-63
2023/08/02 02:45:29;;;;;;;2.13;1.65;;;;;;;;;;5063801;28;20227;-63
2023/08/02 02:47:57;;;;;;;2.15;1.52;;;;;;;;;;5063768;28;20204;-63
2023/08/02 02:50:23;;;;;;;1.92;1.40;;;;;;;;;;5063504;28;20228;-63
2023/08/02 02:52:49;;;;;;;4.22;2.25;;;;;;;;;;5063336;28;20269;-63
2023/08/02 02:55:16;;;;;;;3.67;2.00;;;;;;;;;;5063408;28;20527;-63
2023/08/02 02:57:42;;;;;;;2.08;1.60;;;;;;;;;;5063585;28;20201;-63
2023/08/02 03:00:09;;;;;;;2.28;1.80;;;;;;;;;;5063479;28;20391;-63
2023/08/02 03:02:35;;;;;;;3.15;2.00;;;;;;;;;;5063195;28;20213;-63
2023/08/02 03:05:03;;;;;;;2.05;1.95;;;;;;;;;;5063134;28;20500;-63
2023/08/02 03:07:29;;;;;;;2.78;1.80;;;;;;;;;;5062529;28;20201;-63
2023/08/02 03:09:55;;;;;;;3.03;1.75;;;;;;;;;;5062894;28;20220;-63
2023/08/02 03:12:22;;;;;;;2.55;1.60;;;;;;;;;;5063335;28;20197;-63
2023/08/02 03:14:49;;;;;;;2.67;1.83;;;;;;;;;;5063236;28;20373;-63
2023/08/02 03:17:15;;;;;;;2.15;1.42;;;;;;;;;;5063174;28;20208;-63
2023/08/02 03:19:41;;;;;;;2.25;1.75;;;;;;;;;;5063019;28;20399;-63
2023/08/02 03:22:09;;;;;;;5.45;1.95;;;;;;;;;;5062944;28;20213;-63
2023/08/02 03:24:35;;;;;;;4.13;1.77;;;;;;;;;;5062576;28;20201;-63
2023/08/02 03:27:02;;;;;;;1.80;1.67;;;;;;;;;;5063000;28;20221;-63
2023/08/02 03:29:28;;;;;;;3.90;1.70;;;;;;;;;;5062654;28;20394;-63
2023/08/02 03:31:54;;;;;;;4.38;2.00;;;;;;;;;;5063087;28;20654;-63
2023/08/02 03:34:20;;;;;;;2.60;1.92;;;;;;;;;;5062860;28;20201;-63
2023/08/02 03:36:47;;;;;;;6.78;2.03;;;;;;;;;;5062642;28;20199;-63
2023/08/02 03:39:14;;;;;;;2.63;2.00;;;;;;;;;;5062695;28;20197;-63
2023/08/02 03:41:40;;;;;;;3.33;1.88;;;;;;;;;;5062659;28;20419;-63
2023/08/02 03:44:07;;;;;;;3.38;2.40;;;;;;;;;;5062556;28;20539;-63
2023/08/02 03:46:33;;;;;;;2.85;2.20;;;;;;;;;;5062485;28;20201;-63
2023/08/02 03:48:59;;;;;;;3.25;2.25;;;;;;;;;;5062478;28;20221;-63
2023/08/02 03:51:27;;;;;;;2.65;1.70;;;;;;;;;;5062365;28;20201;-63
2023/08/02 03:53:53;;;;;;;3.78;2.05;;;;;;;;;;5062199;28;20221;-63
2023/08/02 03:56:21;;;;;;;2.92;2.00;;;;;;;;;;5062545;28;20400;-63
2023/08/02 03:58:47;;;;;;;4.50;2.00;;;;;;;;;;5062403;28;20547;-63
2023/08/02 04:01:13;;;;;;;3.58;2.75;;;;;;;;;;5062293;28;20399;-63
2023/08/02 04:03:40;;;;;;;4.18;2.75;;;;;;;;;;5062350;28;20364;-63
2023/08/02 04:06:06;;;;;;;5.10;2.97;;;;;;;;;;5062013;28;20400;-63
2023/08/02 04:08:32;;;;;;;5.75;2.60;;;;;;;;;;5062185;28;20439;-63
2023/08/02 04:11:02;;;;;;;5.45;2.70;;;;;;;;;;5062500;28;20279;-63
2023/08/02 04:13:30;;;;;;;7.22;2.90;;;;;;;;;;5062023;28;20197;-63
2023/08/02 04:15:56;;;;;;;3.60;2.33;;;;;;;;;;5062094;28;20205;-65
2023/08/02 04:18:23;;;;;;;2.42;2.00;;;;;;;;;;5061189;28;20207;-65
2023/08/02 04:20:49;;;;;;;3.15;2.13;;;;;;;;;;5061612;28;20546;-65
2023/08/02 04:23:15;;;;;;;9.25;2.63;;;;;;;;;;5061810;28;20208;-65
2023/08/02 04:25:42;;;;;;;2.17;1.90;;;;;;;;;;5061842;28;20215;-65
2023/08/02 04:28:08;;;;;;;2.28;2.08;;;;;;;;;;5061915;28;20242;-65
2023/08/02 04:30:35;;;;;;;4.13;1.92;;;;;;;;;;5061784;28;20217;-64
2023/08/02 04:33:02;;;;;;;3.55;1.73;;;;;;;;;;5061535;28;20215;-64
2023/08/02 04:35:29;;;;;;;2.13;1.73;;;;;;;;;;5061667;28;20517;-64
2023/08/02 04:37:55;;;;;;;1.92;1.83;;;;;;;;;;5054020;28;20205;-64
2023/08/02 04:40:22;;;;;;;2.90;2.22;;;;;;;;;;5061846;28;20205;-64
2023/08/02 04:42:48;;;;;;;3.38;1.60;;;;;;;;;;5061459;28;20205;-64
2023/08/02 04:45:14;;;;;;;3.97;1.90;;;;;;;;;;5061644;28;20205;-64
2023/08/02 04:47:42;;;;;;;1.70;1.63;;;;;;;;;;5061408;28;20227;-64
2023/08/02 04:50:09;;;;;;;2.10;1.77;;;;;;;;;;5061861;28;20240;-64
2023/08/02 04:52:35;;;;;;;4.63;1.50;;;;;;;;;;5061645;28;20231;-64
2023/08/02 04:55:01;;;;;;;3.88;1.73;;;;;;;;;;5061470;28;20200;-64
2023/08/02 04:57:27;;;;;;;5.85;1.88;;;;;;;;;;5061576;28;20200;-64
2023/08/02 04:59:54;;;;;;;2.28;1.80;;;;;;;;;;5061533;28;20216;-64
2023/08/02 05:02:20;;;;;;;1.67;1.67;;;;;;;;;;5061136;28;20205;-64
2023/08/02 05:04:52;;;;;;;2.33;1.77;;;;;;;;;;5061234;28;20201;-64
2023/08/02 05:07:18;;;;;;;2.10;1.90;;;;;;;;;;5061404;28;20276;-64
2023/08/02 05:09:44;;;;;;;2.45;1.80;;;;;;;;;;5061431;28;20536;-64
2023/08/02 05:12:10;;;;;;;2.03;1.88;;;;;;;;;;5061540;28;20231;-64
2023/08/02 05:14:37;;;;;;;2.72;1.80;;;;;;;;;;5061179;28;20193;-64
2023/08/02 05:17:07;;;;;;;3.75;1.80;;;;;;;;;;5061214;28;20201;-64
2023/08/02 05:19:33;;;;;;;3.75;1.83;;;;;;;;;;5061570;28;20225;-64
2023/08/02 05:22:01;;;;;;;2.33;1.75;;;;;;;;;;5061291;28;20221;-64
2023/08/02 05:24:27;;;;;;;2.47;1.50;;;;;;;;;;5061684;28;20391;-64
2023/08/02 05:26:53;;;;;;;1.73;1.63;;;;;;;;;;5061401;28;20396;-64
2023/08/02 05:29:20;;;;;;;5.60;1.88;;;;;;;;;;5061349;28;20221;-64
2023/08/02 05:31:46;;;;;;;3.10;1.80;;;;;;;;;;5064637;28;20213;-64
2023/08/02 05:34:12;;;;;;;1.75;1.65;;;;;;;;;;5065149;28;20208;-64
2023/08/02 05:36:38;;;;;;;2.50;1.80;;;;;;;;;;5064936;28;20201;-64
2023/08/02 05:39:06;;;;;;;3.33;2.08;;;;;;;;;;5065085;28;20505;-64
2023/08/02 05:41:32;;;;;;;4.82;2.20;;;;;;;;;;5064854;28;20201;-64
2023/08/02 05:43:58;;;;;;;4.03;2.30;;;;;;;;;;5064641;28;20205;-64
2023/08/02 05:46:25;;;;;;;3.53;1.92;;;;;;;;;;5065097;28;20200;-64
2023/08/02 05:48:51;;;;;;;2.45;2.00;;;;;;;;;;5064714;28;20208;-65
2023/08/02 05:51:17;;;;;;;2.72;2.45;;;;;;;;;;5064794;28;20396;-65
2023/08/02 05:53:43;;;;;;;2.53;2.10;;;;;;;;;;5064475;28;20222;-65
2023/08/02 05:56:11;;;;;;;3.33;2.10;;;;;;;;;;5064731;28;20207;-65
2023/08/02 05:58:37;;;;;;;4.93;2.45;;;;;;;;;;5064349;28;20206;-65
2023/08/02 06:01:04;;;;;;;2.60;2.22;;;;;;;;;;5064629;28;20215;-65
2023/08/02 06:03:30;;;;;;;4.53;2.30;;;;;;;;;;5060055;28;20410;-65
2023/08/02 06:05:56;;;;;;;2.85;2.45;;;;;;;;;;5056357;28;20205;-65
2023/08/02 06:08:22;;;;;;;5.35;2.67;;;;;;;;;;5057164;28;20212;-53
2023/08/02 06:10:49;;;;;;;2.92;2.50;;;;;;;;;;5058863;28;20233;-53
2023/08/02 06:13:16;;;;;;;2.42;2.28;;;;;;;;;;5058886;28;20213;-53
2023/08/02 06:15:43;;;;;;;3.60;2.85;;;;;;;;;;5058793;28;20220;-53
2023/08/02 06:18:09;;;;;;;3.33;2.70;;;;;;;;;;5042091;28;20533;-53
2023/08/02 06:20:35;;;;;;;6.22;3.17;;;;;;;;;;5040779;28;20205;-54
2023/08/02 06:23:01;;;;;;;3.88;3.30;;;;;;;;;;5053524;28;20219;-53
2023/08/02 06:25:28;;;;;;;3.22;2.80;;;;;;;;;;5056349;28;20213;-53
2023/08/02 06:27:54;;;;;;;3.97;3.40;;;;;;;;;;5042557;28;20233;-54
2023/08/02 06:30:22;;;;;;;4.38;3.33;;;;;;;;;;5049788;28;20220;-55
2023/08/02 06:32:48;;;;;;;7.20;3.45;;;;;;;;;;5044296;28;20213;-53
2023/08/02 06:35:14;;;;;;;4.22;3.83;;;;;;;;;;5052500;28;20213;-55
2023/08/02 06:37:41;;;;;;;4.00;3.70;;;;;;;;;;5057508;28;20415;-54
2023/08/02 06:40:08;;;;;;;7.07;4.00;;;;;;;;;;5040805;28;20215;-55
2023/08/02 06:42:34;;;;;;;4.88;4.38;;;;;;;;;;5044660;28;20238;-53
2023/08/02 06:45:00;;;;;;;4.78;4.30;;;;;;;;;;5053765;28;20406;-55
2023/08/02 06:47:28;;;;;;;5.03;4.38;;;;;;;;;;5038333;28;20277;-55
2023/08/02 06:49:54;;;;;;;7.07;4.85;;;;;;;;;;5041595;28;20584;-54
2023/08/02 06:52:20;;;;;;;8.07;5.18;;;;;;;;;;5045220;28;20216;-53
2023/08/02 06:54:47;;;;;;;5.22;4.70;;;;;;;;;;5053007;28;20205;-55
2023/08/02 06:57:13;;;;;;;6.55;5.25;;;;;;;;;;5054386;28;20284;-54
2023/08/02 06:59:39;;;;;;;7.18;5.43;;;;;;;;;;5046657;28;20285;-55
2023/08/02 07:02:07;;;;;;;5.60;5.10;;;;;;;;;;5057484;28;20240;-53
2023/08/02 07:04:34;;;;;;;6.30;5.70;;;;;;;;;;5056680;28;20284;-54
2023/08/02 07:07:01;;;;;;;5.90;5.35;;;;;;;;;;5048218;28;20236;-53
2023/08/02 07:09:29;;;;;;;7.10;5.22;;;;;;;;;;5050594;28;20213;-53
2023/08/02 07:11:56;;;;;;;7.28;5.32;;;;;;;;;;5048378;28;20256;-53
2023/08/02 07:14:22;;;;;;;6.60;5.88;;;;;;;;;;5048882;28;20212;-53
2023/08/02 07:16:48;;;;;;;6.15;5.18;;;;;;;;;;5055468;28;20300;-54
2023/08/02 07:19:14;;;;;;;5.95;5.45;;;;;;;;;;5041458;28;20517;-53
2023/08/02 07:21:42;;;;;;;8.27;6.13;;;;;;;;;;5041071;28;20514;-54
2023/08/02 07:24:08;;;;;;;6.60;5.95;;;;;;;;;;5049265;28;20209;-54
2023/08/02 07:26:35;;;;;;;10.55;6.68;;;;;;;;;;5052854;28;20540;-53
2023/08/02 07:29:01;;;;;;;9.80;7.00;;;;;;;;;;5049325;28;20232;-53
2023/08/02 07:31:28;;;;;;;9.95;6.57;;;;;;;;;;5050526;28;20224;-55
2023/08/02 07:33:54;;;;;;;6.85;6.15;;;;;;;;;;5049590;28;20418;-55
2023/08/02 07:36:20;;;;;;;10.30;7.22;;;;;;;;;;5040730;28;20232;-53
2023/08/02 07:38:48;;;;;;;6.88;6.13;;;;;;;;;;5045365;28;20213;-55
2023/08/02 07:41:15;;;;;;;8.02;6.40;;;;;;;;;;5050079;28;20272;-53
2023/08/02 07:43:41;;;;;;;8.93;6.63;;;;;;;;;;5046499;28;20214;-52
2023/08/02 07:46:15;;;;;;;9.32;6.22;;;;;;;;;;5051823;28;20412;-52
2023/08/02 07:48:41;;;;;;;6.47;5.85;;;;;;;;;;5048065;28;20212;-53
2023/08/02 07:51:08;;;;;;;7.88;6.55;;;;;;;;;;5050015;28;20225;-54
2023/08/02 07:53:34;;;;;;;8.02;6.63;;;;;;;;;;5050962;28;20213;-53
2023/08/02 07:56:02;;;;;;;9.02;6.88;;;;;;;;;;5043644;28;20217;-52
2023/08/02 07:58:28;;;;;;;9.05;7.20;;;;;;;;;;5054447;28;20197;-53
2023/08/02 08:00:55;;;;;;;8.82;6.82;;;;;;;;;;5047752;28;20213;-54
2023/08/02 08:03:21;;;;;;;7.28;6.40;;;;;;;;;;5050981;28;20213;-56
2023/08/02 08:05:48;;;;;;;7.13;6.50;;;;;;;;;;5048399;28;20565;-54
2023/08/02 08:08:14;;;;;;;6.97;5.68;;;;;;;;;;5052498;28;20260;-54
2023/08/02 08:10:40;;;;;;;6.90;6.22;;;;;;;;;;5054883;28;20266;-54
2023/08/02 08:13:08;;;;;;;7.05;6.28;;;;;;;;;;5052363;28;20416;-55
2023/08/02 08:15:34;;;;;;;8.13;5.80;;;;;;;;;;5051554;28;20205;-56
2023/08/02 08:18:01;;;;;;;7.28;5.95;;;;;;;;;;5050511;28;20205;-54
2023/08/02 08:20:27;;;;;;;6.97;6.35;;;;;;;;;;5052160;28;20205;-55
2023/08/02 08:22:53;;;;;;;6.57;5.93;;;;;;;;;;5054690;28;20218;-56
2023/08/02 08:25:19;;;;;;;6.72;6.03;;;;;;;;;;5052695;28;20213;-55
2023/08/02 08:27:45;;;;;;;6.70;6.05;;;;;;;;;;5054930;28;20384;-53
2023/08/02 08:30:13;;;;;;;7.28;5.55;;;;;;;;;;5052263;28;20236;-52
2023/08/02 08:32:40;;;;;;;6.28;5.32;;;;;;;;;;5050691;28;20208;-55
2023/08/02 08:35:09;;;;;;;5.53;5.13;;;;;;;;;;5045769;28;20213;-54
2023/08/02 08:37:35;;;;;;;5.10;4.75;;;;;;;;;;5055591;28;20215;-53
2023/08/02 08:40:01;;;;;;;4.57;4.22;;;;;;;;;;5051067;28;20220;-54
2023/08/02 08:42:28;;;;;;;6.32;5.15;;;;;;;;;;5047374;28;20209;-53
2023/08/02 08:44:55;;;;;;;5.05;4.65;;;;;;;;;;5052446;28;20206;-52
2023/08/02 08:47:22;;;;;;;4.50;4.10;;;;;;;;;;5045164;28;20572;-52
2023/08/02 08:49:49;;;;;;;4.85;4.45;;;;;;;;;;5043683;28;20210;-52
2023/08/02 08:52:15;;;;;;;4.32;4.13;;;;;;;;;;5055426;28;20403;-53
2023/08/02 08:54:43;;;;;;;4.38;4.07;;;;;;;;;;5045389;28;20215;-52
2023/08/02 08:57:10;;;;;;;4.72;3.95;;;;;;;;;;5042666;28;20520;-54
2023/08/02 08:59:37;;;;;;;4.25;3.92;;;;;;;;;;5048386;28;20210;-54
2023/08/02 09:02:05;;;;;;;4.15;3.78;;;;;;;;;;5052068;28;20225;-52
2023/08/02 09:04:33;;;;;;;4.13;3.83;;;;;;;;;;5053720;28;20213;-52
2023/08/02 09:06:59;;;;;;;4.10;3.67;;;;;;;;;;5058323;28;20289;-52
2023/08/02 09:09:25;;;;;;;5.10;3.40;;;;;;;;;;5059862;28;20209;-54
2023/08/02 09:11:52;;;;;;;3.95;3.58;;;;;;;;;;5057586;28;20405;-52
2023/08/02 09:14:19;;;;;;;6.50;3.47;;;;;;;;;;5051469;28;20201;-52
2023/08/02 09:16:56;;;;;;;7.32;3.83;;;;;;;;;;5041880;28;20589;-52
2023/08/02 09:19:22;;;;;;;3.92;3.63;;;;;;;;;;5052142;28;20213;-51
2023/08/02 09:22:02;;;;;;;5.07;3.20;;;;;;;;;;5042397;28;20202;-53
2023/08/02 09:24:32;;;;;;;4.72;2.97;;;;;;;;;;5052807;28;20630;-52
2023/08/02 09:26:58;;;;;;;3.03;2.92;;;;;;;;;;5047703;28;20213;-53
2023/08/02 09:29:24;;;;;;;3.70;2.85;;;;;;;;;;5056534;28;20213;-52
2023/08/02 09:31:52;;;;;;;3.20;3.10;;;;;;;;;;5045949;28;20221;-51
2023/08/02 09:34:18;;;;;;;2.67;2.47;;;;;;;;;;5056150;28;20209;-52
2023/08/02 09:36:45;;;;;;;2.85;2.67;;;;;;;;;;5059342;28;20209;-52
2023/08/02 09:39:14;;;;;;;2.50;2.40;;;;;;;;;;5044489;28;20231;-52
2023/08/02 09:41:41;;;;;;;2.60;2.50;;;;;;;;;;5056207;28;20212;-53
2023/08/02 09:44:08;;;;;;;3.10;2.88;;;;;;;;;;5057576;28;20208;-52
2023/08/02 09:46:35;;;;;;;3.42;2.83;;;;;;;;;;5046970;28;20232;-53
2023/08/02 09:49:01;;;;;;;2.88;2.72;;;;;;;;;;5047937;28;20549;-54
2023/08/02 09:51:39;;;;;;;2.55;2.35;;;;;;;;;;5052572;28;20231;-52
2023/08/02 09:54:05;;;;;;;3.30;3.10;;;;;;;;;;5049812;28;20221;-52
2023/08/02 09:56:34;;;;;;;2.58;2.40;;;;;;;;;;5058641;28;20227;-52
2023/08/02 09:59:01;;;;;;;3.30;3.10;;;;;;;;;;5047438;28;20214;-53
2023/08/02 10:01:28;;;;;;;3.03;2.83;;;;;;;;;;5046512;28;20471;-52
2023/08/02 10:03:57;;;;;;;3.00;2.90;;;;;;;;;;5046688;28;20526;-52
2023/08/02 10:06:24;;;;;;;6.50;3.25;;;;;;;;;;5045134;28;20216;-52
2023/08/02 10:08:52;;;;;;;3.80;3.30;;;;;;;;;;5047446;28;20408;-54
2023/08/02 10:11:18;;;;;;;3.08;2.80;;;;;;;;;;5055432;28;20227;-51
2023/08/02 10:13:47;;;;;;;4.20;3.60;;;;;;;;;;5053601;28;20219;-52
2023/08/02 10:16:15;;;;;;;5.97;3.50;;;;;;;;;;5047073;28;20210;-52
2023/08/02 10:18:41;;;;;;;5.45;3.40;;;;;;;;;;5044713;28;20348;-52
2023/08/02 10:21:08;;;;;;;3.70;3.40;;;;;;;;;;5055636;28;20436;-53
2023/08/02 10:23:35;;;;;;;3.10;2.90;;;;;;;;;;5048188;28;20213;-52
2023/08/02 10:26:02;;;;;;;3.42;3.13;;;;;;;;;;5040035;28;20773;-53
2023/08/02 10:28:30;;;;;;;4.10;3.13;;;;;;;;;;5042114;28;20225;-53
2023/08/02 10:30:58;;;;;;;3.53;3.33;;;;;;;;;;5043618;28;20279;-55
2023/08/02 10:33:24;;;;;;;3.92;3.63;;;;;;;;;;5050992;28;20292;-55
2023/08/02 10:35:58;;;;;;;3.60;3.38;;;;;;;;;;5049415;28;20217;-52
2023/08/02 10:38:28;;;;;;;3.58;3.38;;;;;;;;;;5044564;28;20220;-52
2023/08/02 10:41:01;;;;;;;3.58;3.38;;;;;;;;;;5055747;28;20203;-53
2023/08/02 10:43:27;;;;;;;3.75;3.45;;;;;;;;;;5045673;28;20208;-52
2023/08/02 10:48:47;;;;;;;3.90;3.67;;;;;;;;;;5083640;27;20562;-54
2023/08/02 10:51:30;;;;;;;4.20;3.92;;;;;;;;;;5085314;28;20515;-54
2023/08/02 10:54:12;;;;;;;4.50;4.18;;;;;;;;;;5093221;28;20549;-53
2023/08/02 10:57:10;;;;;;;3.67;3.47;;;;;;;;;;5093397;28;20414;-53
2023/08/02 10:59:40;;;;;;;4.22;3.67;;;;;;;;;;5091603;28;20262;-53
2023/08/02 11:02:07;;;;;;;5.40;4.13;;;;;;;;;;5091654;28;20482;-55
2023/08/02 11:04:37;;;;;;;4.25;3.95;;;;;;;;;;5087181;28;20212;-53
2023/08/02 11:07:10;;;;;;;7.70;3.97;;;;;;;;;;5081042;28;20258;-54
2023/08/02 11:09:37;;;;;;;4.15;3.75;;;;;;;;;;5088505;28;20204;-54
2023/08/02 11:12:08;;;;;;;4.45;3.80;;;;;;;;;;5091364;28;20409;-53
2023/08/02 11:14:34;;;;;;;4.53;3.40;;;;;;;;;;5078568;28;20207;-54
2023/08/02 11:17:01;;;;;;;6.25;3.90;;;;;;;;;;5077374;28;20218;-53
2023/08/02 11:19:28;;;;;;;4.15;3.72;;;;;;;;;;5090526;28;20208;-54
2023/08/02 11:21:57;;;;;;;4.25;3.80;;;;;;;;;;5083505;28;20535;-53
2023/08/02 11:24:23;;;;;;;3.90;3.60;;;;;;;;;;5088547;28;20212;-54
2023/08/02 11:26:53;;;;;;;4.13;3.83;;;;;;;;;;5082493;28;20220;-53
2023/08/02 11:29:20;;;;;;;5.22;3.70;;;;;;;;;;5065405;28;20383;-53
2023/08/02 11:31:46;;;;;;;4.07;3.67;;;;;;;;;;5067774;28;20417;-53
2023/08/02 11:34:17;;;;;;;5.28;3.92;;;;;;;;;;5071954;28;20216;-53
2023/08/02 11:36:43;;;;;;;4.40;4.10;;;;;;;;;;5070641;28;20220;-53
2023/08/02 11:39:15;;;;;;;4.97;3.78;;;;;;;;;;5065509;28;20217;-54
2023/08/02 11:41:41;;;;;;;4.25;3.92;;;;;;;;;;5061192;28;20213;-55
2023/08/02 11:44:14;;;;;;;4.32;3.92;;;;;;;;;;5063419;28;20518;-53
2023/08/02 11:46:40;;;;;;;3.95;3.65;;;;;;;;;;5061000;28;20382;-53
2023/08/02 11:49:07;;;;;;;4.07;3.88;;;;;;;;;;5068712;28;20246;-55
2023/08/02 11:51:39;;;;;;;3.83;3.50;;;;;;;;;;5065484;28;20267;-55
2023/08/02 11:54:05;;;;;;;4.10;3.80;;;;;;;;;;5071355;28;20220;-54
2023/08/02 11:56:33;;;;;;;3.60;3.30;;;;;;;;;;5071930;28;20279;-56
2023/08/02 11:58:59;;;;;;;5.45;3.10;;;;;;;;;;5059258;28;20420;-54
2023/08/02 12:01:26;;;;;;;3.17;2.88;;;;;;;;;;5056441;28;20540;-55
2023/08/02 12:03:53;;;;;;;4.57;3.20;;;;;;;;;;5055090;28;20219;-55
2023/08/02 12:06:19;;;;;;;3.30;3.10;;;;;;;;;;5054459;28;20209;-56
2023/08/02 12:08:50;;;;;;;2.95;2.75;;;;;;;;;;5050240;28;20548;-54
2023/08/02 12:11:16;;;;;;;3.25;2.70;;;;;;;;;;5058557;28;20542;-56
2023/08/02 12:13:45;;;;;;;2.88;2.78;;;;;;;;;;5050334;28;20221;-55
2023/08/02 12:16:13;;;;;;;3.90;2.70;;;;;;;;;;5046162;28;20214;-54
2023/08/02 12:18:49;;;;;;;3.67;2.60;;;;;;;;;;5051587;28;20271;-54
2023/08/02 12:21:15;;;;;;;3.17;2.97;;;;;;;;;;5051457;28;20535;-54
2023/08/02 12:23:42;;;;;;;2.80;2.60;;;;;;;;;;5057769;28;20201;-54
2023/08/02 12:26:08;;;;;;;3.20;2.90;;;;;;;;;;5044994;28;20212;-56
2023/08/02 12:28:45;;;;;;;3.03;2.80;;;;;;;;;;5050003;28;20231;-54
2023/08/02 12:31:12;;;;;;;4.72;2.58;;;;;;;;;;5048567;28;20212;-54
2023/08/02 12:33:38;;;;;;;4.35;2.90;;;;;;;;;;5040423;28;20284;-54
2023/08/02 12:36:04;;;;;;;2.70;2.50;;;;;;;;;;5045139;28;20220;-55
2023/08/02 12:38:31;;;;;;;2.83;2.63;;;;;;;;;;5041061;28;20205;-53
2023/08/02 12:40:58;;;;;;;2.63;2.42;;;;;;;;;;5041736;28;20214;-54
2023/08/02 12:43:24;;;;;;;2.75;2.55;;;;;;;;;;5042171;28;20250;-54
2023/08/02 12:45:52;;;;;;;3.10;2.40;;;;;;;;;;5045451;28;20232;-56
2023/08/02 12:48:18;;;;;;;2.88;2.17;;;;;;;;;;5040861;28;20224;-54
2023/08/02 12:50:46;;;;;;;2.53;2.33;;;;;;;;;;5043430;28;20220;-56
2023/08/02 12:53:12;;;;;;;2.42;2.33;;;;;;;;;;5040415;28;20213;-54
2023/08/02 12:55:38;;;;;;;5.22;2.80;;;;;;;;;;5043833;28;20220;-54
2023/08/02 12:58:05;;;;;;;2.47;2.38;;;;;;;;;;5050508;28;20209;-55
2023/08/02 13:00:31;;;;;;;2.70;2.50;;;;;;;;;;5057325;28;20209;-54
2023/08/02 13:02:59;;;;;;;2.33;2.22;;;;;;;;;;5049977;28;20214;-54
2023/08/02 13:05:25;;;;;;;2.50;2.30;;;;;;;;;;5050968;28;20476;-55
2023/08/02 13:07:51;;;;;;;2.80;2.10;;;;;;;;;;5042618;28;20287;-55
2023/08/02 13:10:17;;;;;;;2.70;2.35;;;;;;;;;;5055551;28;20212;-54
2023/08/02 13:12:44;;;;;;;2.63;1.98;;;;;;;;;;5051327;28;20293;-54
2023/08/02 13:15:10;;;;;;;4.25;2.20;;;;;;;;;;5045882;28;20217;-54
2023/08/02 13:17:36;;;;;;;3.05;2.30;;;;;;;;;;5057262;28;20208;-56
2023/08/02 13:20:04;;;;;;;2.10;2.00;;;;;;;;;;5045353;28;20221;-54
2023/08/02 13:22:31;;;;;;;2.45;2.10;;;;;;;;;;5050299;28;20421;-54
2023/08/02 13:24:57;;;;;;;2.30;2.10;;;;;;;;;;5045314;28;20444;-54
2023/08/02 13:27:24;;;;;;;3.08;2.10;;;;;;;;;;5049242;28;20220;-55
2023/08/02 13:29:50;;;;;;;1.98;1.88;;;;;;;;;;5048965;28;20532;-54
2023/08/02 13:32:16;;;;;;;2.15;2.00;;;;;;;;;;5056263;28;20389;-55
2023/08/02 13:34:42;;;;;;;2.15;2.05;;;;;;;;;;5043832;28;20219;-54
2023/08/02 13:37:10;;;;;;;5.95;2.20;;;;;;;;;;5048591;28;20213;-55
2023/08/02 13:39:36;;;;;;;2.97;1.88;;;;;;;;;;5049943;28;20216;-54
2023/08/02 13:42:02;;;;;;;3.40;1.95;;;;;;;;;;5051494;28;20212;-56
2023/08/02 13:44:30;;;;;;;2.17;2.08;;;;;;;;;;5057240;28;20212;-56
2023/08/02 13:46:56;;;;;;;5.93;2.28;;;;;;;;;;5053929;28;20212;-54
2023/08/02 13:49:23;;;;;;;2.10;2.00;;;;;;;;;;5052693;28;20227;-56
2023/08/02 13:51:49;;;;;;;3.65;2.05;;;;;;;;;;5055952;28;20536;-54
2023/08/02 13:54:17;;;;;;;3.28;2.13;;;;;;;;;;5043217;28;20221;-53
2023/08/02 13:56:43;;;;;;;6.28;2.28;;;;;;;;;;5050928;28;20220;-53
2023/08/02 13:59:09;;;;;;;3.10;1.70;;;;;;;;;;5053204;28;20223;-53
2023/08/02 14:01:35;;;;;;;6.93;2.00;;;;;;;;;;5056207;28;20216;-54
2023/08/02 14:04:02;;;;;;;2.25;2.15;;;;;;;;;;5054793;28;20539;-54
2023/08/02 14:06:28;;;;;;;2.80;2.08;;;;;;;;;;5050719;28;20208;-55
2023/08/02 14:08:55;;;;;;;3.78;1.90;;;;;;;;;;5052008;28;20233;-55
2023/08/02 14:11:23;;;;;;;2.10;1.88;;;;;;;;;;5054715;28;20248;-54
2023/08/02 14:13:49;;;;;;;2.60;1.67;;;;;;;;;;5044281;28;20230;-54
2023/08/02 14:16:15;;;;;;;1.67;1.58;;;;;;;;;;5042090;28;20213;-56
2023/08/02 14:18:41;;;;;;;2.92;1.95;;;;;;;;;;5051290;28;20554;-54
2023/08/02 14:21:08;;;;;;;2.45;1.63;;;;;;;;;;5047824;28;20556;-54
2023/08/02 14:23:35;;;;;;;2.88;1.42;;;;;;;;;;5044382;28;20216;-55
2023/08/02 14:26:01;;;;;;;1.58;1.42;;;;;;;;;;5052186;28;20219;-54
2023/08/02 14:28:29;;;;;;;1.90;1.80;;;;;;;;;;5048183;28;20230;-54
2023/08/02 14:30:57;;;;;;;3.03;1.70;;;;;;;;;;5052890;28;20219;-54
2023/08/02 14:33:23;;;;;;;2.50;1.50;;;;;;;;;;5052398;28;20731;-55
2023/08/02 14:35:49;;;;;;;1.80;1.70;;;;;;;;;;5045568;28;20212;-53
2023/08/02 14:38:15;;;;;;;2.47;1.70;;;;;;;;;;5050037;28;20197;-53
2023/08/02 14:40:42;;;;;;;1.67;1.60;;;;;;;;;;5055138;28;20216;-54
2023/08/02 14:43:08;;;;;;;2.05;1.65;;;;;;;;;;5048867;28;20224;-55
2023/08/02 14:45:36;;;;;;;1.83;1.50;;;;;;;;;;5055882;28;20232;-54